00 100 18 Happy Fell — W — position and weather

sailwx.info

Track history (hours):
 
Tides and Currents Weather Stations Pressure Air Temp Water Temp Dewpoint Dewpoint Depression Visibility Wind Speed Wind Dir Waves Ship Positions

00 100 18 Happy Fell

Last reported at 2018-Feb-04 21:29 UTC. Time now 2018-Feb-19 01:59 UTC.
Position N 25°58' W 080°08'.
Warning: this ship's position is 14 days out of date.

Length 24 m; draft 1.1 m.

Type: Cargo ship. MMSI: 243071215.

Date/timePositionNaut miles runAvg speedWind from/ knotsBaromVisibWave heightAir tempDewpointWater temp
2018-Feb-04 21:29N 25°58' W 080°08'8 5.4
2018-Feb-04 20:00N 26°06' W 080°10'4936920.6
2018-Feb-04 14:38N 47°23' E 018°60'111.0
2018-Feb-04 14:30N 47°24' E 019°02'1 2.6
2018-Feb-04 14:00N 47°25' E 019°03'510.0
2018-Feb-04 13:30N 47°30' E 019°03'510.5
2018-Feb-04 13:01N 47°35' E 019°04'1 0.2
2018-Feb-04 08:35N 47°36' E 019°05'1 6.2
2018-Feb-04 08:28N 47°35' E 019°04'3 5.8
2018-Feb-04 08:00N 47°33' E 019°04'3 5.6
2018-Feb-04 07:30N 47°30' E 019°03'2 4.9
2018-Feb-04 07:00N 47°28' E 019°04'2 4.9
2018-Feb-04 06:30N 47°25' E 019°03'2 4.4
2018-Feb-04 06:00N 47°23' E 019°01'  
2018-Jan-29 19:22N 47°23' E 018°60'410.1
2018-Jan-29 19:00N 47°26' E 019°03'510.7
2018-Jan-29 18:30N 47°32' E 019°03'510.8
2018-Jan-29 18:00N 47°37' E 019°06'0 0.1
2018-Jan-29 13:41N 47°37' E 019°06'1 6.1
2018-Jan-29 13:27N 47°36' E 019°05'2 5.6
2018-Jan-29 13:00N 47°33' E 019°04'3 5.4
2018-Jan-29 12:30N 47°31' E 019°03'2 4.8
2018-Jan-29 12:00N 47°28' E 019°04'2 4.7
2018-Jan-29 11:30N 47°26' E 019°03'2 4.9
2018-Jan-29 11:00N 47°24' E 019°02'  
Track history (hours):
 
Tides and Currents Weather Stations Pressure Air Temp Water Temp Dewpoint Dewpoint Depression Visibility Wind Speed Wind Dir Waves Ship Positions

00 100 18 Happy Fell

Last reported at 2018-Feb-04 21:29 UTC. Time now 2018-Feb-19 01:59 UTC.
Position N 25°58' W 080°08'.
Warning: this ship's position is 14 days out of date.

Length 24 m; draft 1.1 m.

Type: Cargo ship. MMSI: 243071215.

Date/timePositionNaut miles runAvg speedWind from/ knotsBaromVisibWave heightAir tempDewpointWater temp
2018-Feb-04 21:29N 25°58' W 080°08'8 5.4
2018-Feb-04 20:00N 26°06' W 080°10'4936920.6
2018-Feb-04 14:38N 47°23' E 018°60'111.0
2018-Feb-04 14:30N 47°24' E 019°02'1 2.6
2018-Feb-04 14:00N 47°25' E 019°03'510.0
2018-Feb-04 13:30N 47°30' E 019°03'510.5
2018-Feb-04 13:01N 47°35' E 019°04'1 0.2
2018-Feb-04 08:35N 47°36' E 019°05'1 6.2
2018-Feb-04 08:28N 47°35' E 019°04'3 5.8
2018-Feb-04 08:00N 47°33' E 019°04'3 5.6
2018-Feb-04 07:30N 47°30' E 019°03'2 4.9
2018-Feb-04 07:00N 47°28' E 019°04'2 4.9
2018-Feb-04 06:30N 47°25' E 019°03'2 4.4
2018-Feb-04 06:00N 47°23' E 019°01'  
2018-Jan-29 19:22N 47°23' E 018°60'410.1
2018-Jan-29 19:00N 47°26' E 019°03'510.7
2018-Jan-29 18:30N 47°32' E 019°03'510.8
2018-Jan-29 18:00N 47°37' E 019°06'0 0.1
2018-Jan-29 13:41N 47°37' E 019°06'1 6.1
2018-Jan-29 13:27N 47°36' E 019°05'2 5.6
2018-Jan-29 13:00N 47°33' E 019°04'3 5.4
2018-Jan-29 12:30N 47°31' E 019°03'2 4.8
2018-Jan-29 12:00N 47°28' E 019°04'2 4.7
2018-Jan-29 11:30N 47°26' E 019°03'2 4.9
2018-Jan-29 11:00N 47°24' E 019°02'  

Dump ship's entire track history